createdAt,value
2024-03-15T00:01:05.849Z,8.5
2024-03-15T00:02:17.877Z,8.5
2024-03-15T00:03:29.875Z,8.3
2024-03-15T00:04:41.822Z,8.5
2024-03-15T00:05:53.850Z,8.5
2024-03-15T00:07:05.828Z,8.5
2024-03-15T00:08:17.818Z,8.5
2024-03-15T00:09:29.865Z,8.5
2024-03-15T00:10:41.857Z,8.5
2024-03-15T00:11:53.825Z,8.7
2024-03-15T00:13:05.873Z,8.5
2024-03-15T00:14:17.851Z,8.6
2024-03-15T00:15:29.855Z,8.6
2024-03-15T00:16:41.843Z,8.6
2024-03-15T00:17:53.819Z,8.5
2024-03-15T00:19:05.869Z,8.5
2024-03-15T00:20:17.831Z,8.3
2024-03-15T00:21:29.887Z,8.3
2024-03-15T00:22:41.872Z,8.3
2024-03-15T00:23:53.855Z,8.3
2024-03-15T00:25:05.828Z,8.3
2024-03-15T00:26:17.833Z,8.5
2024-03-15T00:27:29.885Z,8.6
2024-03-15T00:28:41.856Z,8.6
2024-03-15T00:29:53.842Z,8.6
2024-03-15T00:31:05.897Z,8.6
2024-03-15T00:32:17.852Z,8.5
2024-03-15T00:33:29.860Z,8.5
2024-03-15T00:34:41.949Z,8.5
2024-03-15T00:35:53.821Z,8.5
2024-03-15T00:37:05.832Z,8.5
2024-03-15T00:38:17.857Z,8.3
2024-03-15T00:39:29.866Z,8.5
2024-03-15T00:40:41.828Z,8.5
2024-03-15T00:43:05.819Z,8.5
2024-03-15T00:44:17.858Z,8.5
2024-03-15T00:45:29.913Z,8.5
2024-03-15T00:46:41.833Z,8.5
2024-03-15T00:47:53.869Z,8.5
2024-03-15T00:49:05.856Z,8.5
2024-03-15T00:50:17.832Z,8.5
2024-03-15T00:51:30.288Z,8.5
2024-03-15T00:52:42.212Z,8.4
2024-03-15T00:53:54.204Z,8.4
2024-03-15T00:55:06.233Z,8.4
2024-03-15T00:56:18.221Z,8.6
2024-03-15T00:57:30.258Z,8.6
2024-03-15T00:58:42.270Z,8.6
2024-03-15T01:00:06.287Z,8.6
2024-03-15T01:01:18.206Z,8.6
2024-03-15T01:02:31.307Z,8.6
2024-03-15T01:03:42.277Z,8.6
2024-03-15T01:04:54.221Z,8.5
2024-03-15T01:06:06.206Z,8.5
2024-03-15T01:07:18.221Z,8.5
2024-03-15T01:08:30.232Z,8.3
2024-03-15T01:09:42.448Z,8.4
2024-03-15T01:10:54.296Z,8.6
2024-03-15T01:12:18.249Z,8.6
2024-03-15T01:13:30.235Z,8.6
2024-03-15T01:14:42.246Z,8.6
2024-03-15T01:15:54.329Z,8.6
2024-03-15T01:17:06.216Z,8.6
2024-03-15T01:18:18.798Z,8.6
2024-03-15T01:19:30.197Z,8.6
2024-03-15T01:20:42.209Z,8.6
2024-03-15T01:23:06.225Z,8.4
2024-03-15T01:24:18.237Z,8.4
2024-03-15T01:25:30.201Z,8.4
2024-03-15T01:26:42.501Z,8.4
2024-03-15T01:27:54.239Z,8.4
2024-03-15T01:29:06.235Z,8.4
2024-03-15T01:30:18.329Z,8.4
2024-03-15T01:31:30.279Z,8.7
2024-03-15T01:32:42.227Z,8.7
2024-03-15T01:33:54.324Z,8.5
2024-03-15T01:35:06.238Z,8.5
2024-03-15T01:36:18.221Z,8.5
2024-03-15T01:37:30.224Z,8.5
2024-03-15T01:38:42.292Z,8.5
2024-03-15T01:39:54.252Z,8.7
2024-03-15T01:41:18.228Z,8.7
2024-03-15T01:42:30.251Z,8.7
2024-03-15T01:43:42.249Z,8.7
2024-03-15T01:44:54.243Z,8.6
2024-03-15T01:46:06.224Z,8.6
2024-03-15T01:47:18.217Z,8.8
2024-03-15T01:48:30.224Z,8.6
2024-03-15T01:49:42.219Z,8.6
2024-03-15T01:51:18.632Z,8.5
2024-03-15T01:52:30.626Z,8.5
2024-03-15T01:53:42.633Z,8.5
2024-03-15T01:54:54.615Z,8.7
2024-03-15T01:56:06.606Z,8.5
2024-03-15T01:57:18.627Z,8.5
2024-03-15T01:58:30.635Z,8.6
2024-03-15T01:59:42.598Z,8.6
2024-03-15T02:00:54.666Z,8.6
2024-03-15T02:02:06.617Z,8.6
2024-03-15T02:03:18.679Z,8.5
2024-03-15T02:04:30.612Z,8.5
2024-03-15T02:05:42.608Z,8.5
2024-03-15T02:06:54.628Z,8.4
2024-03-15T02:08:06.621Z,8.4
2024-03-15T02:09:18.634Z,8.4
2024-03-15T02:10:30.609Z,8.4
2024-03-15T02:11:42.593Z,8.4
2024-03-15T02:12:54.654Z,8.4
2024-03-15T02:14:06.581Z,8.5
2024-03-15T02:15:18.732Z,8.5
2024-03-15T02:16:30.583Z,8.5
2024-03-15T02:17:42.606Z,8.6
2024-03-15T02:18:54.602Z,8.6
2024-03-15T02:20:06.617Z,8.6
2024-03-15T02:21:18.633Z,8.6
2024-03-15T02:22:30.630Z,8.6
2024-03-15T02:23:42.593Z,8.6
2024-03-15T02:24:54.613Z,8.6
2024-03-15T02:26:06.614Z,8.6
2024-03-15T02:27:18.665Z,8.6
2024-03-15T02:28:30.609Z,8.5
2024-03-15T02:29:42.686Z,8.5
2024-03-15T02:30:54.631Z,8.5
2024-03-15T02:32:06.685Z,8.5
2024-03-15T02:33:18.659Z,8.5
2024-03-15T02:34:30.601Z,8.5
2024-03-15T02:35:42.602Z,8.7
2024-03-15T02:38:06.593Z,8.6
2024-03-15T02:39:18.633Z,8.6
2024-03-15T02:40:30.618Z,8.6
2024-03-15T02:41:42.595Z,8.6
2024-03-15T02:42:54.818Z,8.6
2024-03-15T02:44:06.619Z,8.6
2024-03-15T02:45:18.593Z,8.6
2024-03-15T02:46:30.608Z,8.5
2024-03-15T02:47:42.769Z,8.5
2024-03-15T02:48:54.641Z,8.5
2024-03-15T02:50:06.576Z,8.5
2024-03-15T02:51:18.997Z,8.7
2024-03-15T02:52:31.060Z,8.7
2024-03-15T02:53:42.976Z,8.6
2024-03-15T02:54:54.982Z,8.6
2024-03-15T02:56:06.995Z,8.6
2024-03-15T02:57:19.030Z,8.6
2024-03-15T02:58:30.958Z,8.6
2024-03-15T02:59:42.989Z,8.6
2024-03-15T03:00:55.024Z,8.5
2024-03-15T03:02:06.970Z,8.5
2024-03-15T03:03:19.046Z,8.5
2024-03-15T03:04:31.174Z,8.5
2024-03-15T03:05:43.002Z,8.5
2024-03-15T03:06:55.041Z,8.4
2024-03-15T03:08:06.976Z,8.6
2024-03-15T03:09:18.968Z,8.6
2024-03-15T03:10:30.965Z,8.5
2024-03-15T03:12:55.041Z,8.5
2024-03-15T03:14:07.016Z,8.6
2024-03-15T03:15:18.972Z,8.6
2024-03-15T03:16:30.968Z,8.6
2024-03-15T03:17:42.999Z,8.3
2024-03-15T03:18:55.032Z,8.3
2024-03-15T03:20:07.001Z,8.3
2024-03-15T03:21:18.964Z,8.3
2024-03-15T03:22:30.996Z,8.3
2024-03-15T03:23:42.958Z,8.5
2024-03-15T03:24:55.028Z,8.3
2024-03-15T03:26:06.983Z,8.3
2024-03-15T03:27:19.035Z,8.3
2024-03-15T03:28:30.976Z,8.5
2024-03-15T03:29:43.005Z,8.5
2024-03-15T03:30:55.027Z,8.5
2024-03-15T03:32:09.279Z,8.4
2024-03-15T03:33:19.104Z,8.4
2024-03-15T03:34:31.006Z,8.4
2024-03-15T03:35:43.074Z,8.4
2024-03-15T03:36:55.042Z,8.4
2024-03-15T03:38:07.008Z,8.4
2024-03-15T03:39:18.983Z,8.3
2024-03-15T03:40:30.967Z,8.3
2024-03-15T03:41:42.990Z,8.1
2024-03-15T03:42:55.079Z,8.3
2024-03-15T03:44:06.982Z,8.3
2024-03-15T03:45:19.313Z,8.3
2024-03-15T03:46:30.982Z,8.5
2024-03-15T03:47:43.016Z,8.2
2024-03-15T03:48:55.023Z,8.2
2024-03-15T03:50:06.972Z,8.4
2024-03-15T03:51:19.390Z,8.4
2024-03-15T03:52:31.369Z,8.3
2024-03-15T03:53:43.450Z,8.3
2024-03-15T03:54:57.709Z,8.4
2024-03-15T03:56:07.366Z,8.4
2024-03-15T03:57:19.719Z,8.4
2024-03-15T03:58:31.357Z,8.3
2024-03-15T03:59:43.390Z,8.3
2024-03-15T04:00:55.448Z,8.1
2024-03-15T04:02:07.371Z,8.1
2024-03-15T04:03:19.363Z,8.1
2024-03-15T04:04:31.390Z,8.1
2024-03-15T04:05:43.346Z,8.1
2024-03-15T04:06:55.425Z,8.1
2024-03-15T04:08:07.391Z,8.2
2024-03-15T04:09:19.488Z,8.2
2024-03-15T04:10:31.420Z,8.2
2024-03-15T04:11:43.410Z,8.3
2024-03-15T04:12:55.369Z,8.2
2024-03-15T04:14:07.406Z,8.2
2024-03-15T04:15:24.717Z,8.2
2024-03-15T04:16:31.377Z,8.4
2024-03-15T04:17:43.395Z,8.4
2024-03-15T04:18:55.393Z,8.2
2024-03-15T04:20:07.403Z,8.2
2024-03-15T04:21:19.396Z,8.2
2024-03-15T04:22:31.413Z,8.2
2024-03-15T04:23:43.401Z,8.2
2024-03-15T04:24:55.369Z,8.2
2024-03-15T04:26:07.374Z,8.2
2024-03-15T04:27:19.443Z,8.2
2024-03-15T04:28:31.401Z,8.3
2024-03-15T04:29:43.481Z,8.1
2024-03-15T04:30:55.404Z,8.1
2024-03-15T04:32:07.393Z,8.3
2024-03-15T04:33:19.477Z,8.1
2024-03-15T04:34:31.380Z,8.2
2024-03-15T04:35:43.395Z,8.2
2024-03-15T04:36:55.401Z,8.2
2024-03-15T04:38:07.346Z,8.2
2024-03-15T04:39:19.373Z,8.3
2024-03-15T04:40:31.417Z,8.5
2024-03-15T04:42:55.386Z,8.1
2024-03-15T04:44:07.389Z,8.1
2024-03-15T04:45:19.380Z,8.3
2024-03-15T04:46:31.380Z,8.1
2024-03-15T04:47:43.442Z,8.2
2024-03-15T04:48:55.400Z,8.2
2024-03-15T04:50:07.354Z,8.2
2024-03-15T04:51:19.804Z,8.3
2024-03-15T04:52:31.758Z,8.3
2024-03-15T04:53:43.764Z,8.4
2024-03-15T04:54:55.781Z,8.4
2024-03-15T04:56:07.768Z,8.4
2024-03-15T04:57:19.743Z,8.4
2024-03-15T04:58:31.767Z,8.4
2024-03-15T04:59:43.752Z,8.4
2024-03-15T05:00:55.810Z,8.2
2024-03-15T05:02:07.727Z,8.4
2024-03-15T05:03:19.764Z,8.4
2024-03-15T05:04:31.760Z,8.2
2024-03-15T05:05:43.749Z,8.3
2024-03-15T05:06:55.743Z,8.3
2024-03-15T05:08:07.764Z,8.3
2024-03-15T05:09:19.921Z,8.3
2024-03-15T05:10:31.967Z,8.3
2024-03-15T05:12:55.746Z,8.3
2024-03-15T05:14:07.797Z,8.4
2024-03-15T05:15:19.763Z,8.2
2024-03-15T05:16:31.770Z,8.4
2024-03-15T05:17:43.958Z,8.4
2024-03-15T05:18:55.788Z,8.4
2024-03-15T05:20:07.763Z,8.5
2024-03-15T05:21:19.931Z,8.5
2024-03-15T05:22:31.853Z,8.5
2024-03-15T05:23:43.765Z,8.4
2024-03-15T05:24:55.781Z,8.6
2024-03-15T05:26:07.763Z,8.6
2024-03-15T05:27:19.804Z,8.4
2024-03-15T05:28:31.734Z,8.3
2024-03-15T05:29:43.753Z,8.3
2024-03-15T05:30:55.831Z,8.3
2024-03-15T05:32:07.752Z,8.3
2024-03-15T05:33:20.008Z,8.3
2024-03-15T05:34:31.794Z,8.3
2024-03-15T05:35:43.740Z,8.4
2024-03-15T05:36:55.768Z,8.4
2024-03-15T05:38:07.759Z,8.4
2024-03-15T05:39:19.944Z,8.4
2024-03-15T05:40:31.875Z,8.4
2024-03-15T05:41:43.743Z,8.4
2024-03-15T05:42:55.821Z,8.5
2024-03-15T05:44:07.796Z,8.5
2024-03-15T05:45:19.805Z,8.5
2024-03-15T05:46:31.804Z,8.3
2024-03-15T05:47:43.797Z,8.3
2024-03-15T05:48:55.837Z,8.3
2024-03-15T05:50:07.765Z,8.3
2024-03-15T05:51:20.144Z,8.3
2024-03-15T05:52:32.138Z,8.4
2024-03-15T05:53:46.691Z,8.4
2024-03-15T05:54:56.179Z,8.4
2024-03-15T05:56:08.178Z,8.2
2024-03-15T05:57:20.157Z,8.3
2024-03-15T05:58:32.197Z,8.3
2024-03-15T05:59:44.133Z,8.3
2024-03-15T06:00:56.201Z,8.4
2024-03-15T06:02:08.211Z,8.4
2024-03-15T06:03:20.170Z,8.4
2024-03-15T06:04:32.165Z,8.4
2024-03-15T06:05:44.147Z,8.4
2024-03-15T06:06:56.119Z,8.4
2024-03-15T06:08:08.162Z,8.4
2024-03-15T06:09:20.223Z,8.5
2024-03-15T06:10:32.162Z,8.5
2024-03-15T06:11:44.164Z,8.7
2024-03-15T06:12:56.225Z,8.5
2024-03-15T06:14:08.164Z,8.5
2024-03-15T06:15:20.205Z,8.5
2024-03-15T06:16:32.144Z,8.3
2024-03-15T06:17:44.115Z,8.5
2024-03-15T06:18:56.248Z,8.5
2024-03-15T06:20:08.137Z,8.5
2024-03-15T06:21:20.214Z,8.5
2024-03-15T06:22:32.184Z,8.5
2024-03-15T06:23:44.142Z,8.5
2024-03-15T06:24:56.211Z,8.3
2024-03-15T06:26:08.156Z,8.3
2024-03-15T06:27:20.251Z,8.5
2024-03-15T06:28:32.126Z,8.3
2024-03-15T06:29:44.142Z,8.4
2024-03-15T06:30:56.227Z,8.4
2024-03-15T06:32:08.145Z,8.4
2024-03-15T06:33:20.230Z,8.6
2024-03-15T06:34:32.279Z,8.4
2024-03-15T06:35:44.131Z,8.4
2024-03-15T06:36:56.157Z,8.4
2024-03-15T06:38:08.208Z,8.6
2024-03-15T06:39:20.175Z,8.4
2024-03-15T06:40:32.646Z,8.6
2024-03-15T06:42:56.199Z,8.6
2024-03-15T06:44:08.240Z,8.6
2024-03-15T06:45:20.193Z,8.6
2024-03-15T06:46:32.159Z,8.4
2024-03-15T06:47:44.142Z,8.6
2024-03-15T06:48:56.516Z,8.4
2024-03-15T06:50:08.233Z,8.4
2024-03-15T06:51:20.636Z,8.4
2024-03-15T06:52:32.499Z,8.4
2024-03-15T06:53:44.543Z,8.4
2024-03-15T06:54:56.582Z,8.4
2024-03-15T06:56:08.525Z,8.5
2024-03-15T06:57:44.587Z,8.5
2024-03-15T06:58:56.513Z,8.5
2024-03-15T07:00:08.526Z,8.7
2024-03-15T07:01:20.542Z,8.7
2024-03-15T07:02:32.524Z,8.5
2024-03-15T07:03:44.603Z,8.5
2024-03-15T07:04:56.666Z,8.5
2024-03-15T07:06:08.540Z,8.5
2024-03-15T07:07:44.509Z,8.7
2024-03-15T07:08:56.537Z,8.7
2024-03-15T07:10:08.532Z,8.5
2024-03-15T07:12:56.564Z,8.5
2024-03-15T07:14:08.522Z,8.5
2024-03-15T07:15:20.548Z,8.6
2024-03-15T07:16:32.672Z,8.4
2024-03-15T07:17:44.523Z,8.2
2024-03-15T07:18:56.701Z,8.5
2024-03-15T07:20:08.553Z,8.3
2024-03-15T07:21:08.718Z,8.4
2024-03-15T07:22:20.555Z,8.5
2024-03-15T07:23:32.530Z,8.5
2024-03-15T07:24:44.532Z,8.6
2024-03-15T07:25:56.530Z,8.7
2024-03-15T07:27:08.571Z,8.7
2024-03-15T07:28:20.544Z,8.7
2024-03-15T07:29:32.545Z,8.7
2024-03-15T07:30:44.545Z,8.7
2024-03-15T07:31:56.530Z,8.7
2024-03-15T07:33:08.760Z,8.7
2024-03-15T07:34:20.537Z,8.8
2024-03-15T07:35:32.534Z,8.7
2024-03-15T07:36:44.535Z,8.7
2024-03-15T07:37:44.530Z,8.7
2024-03-15T07:38:56.503Z,8.7
2024-03-15T07:40:08.591Z,8.8
2024-03-15T07:41:20.605Z,8.8
2024-03-15T07:42:32.612Z,8.6
2024-03-15T07:43:44.510Z,8.6
2024-03-15T07:44:56.554Z,8.8
2024-03-15T07:46:08.560Z,8.6
2024-03-15T07:47:20.528Z,8.9
2024-03-15T07:48:32.593Z,8.9
2024-03-15T07:49:44.526Z,8.7
2024-03-15T07:50:56.584Z,8.9
2024-03-15T07:52:09.006Z,8.8
2024-03-15T07:53:20.947Z,8.8
2024-03-15T07:54:32.951Z,9
2024-03-15T07:55:44.949Z,9
2024-03-15T07:56:56.957Z,9
2024-03-15T07:58:09.052Z,9
2024-03-15T07:59:20.955Z,9
2024-03-15T08:00:33.009Z,8.9
2024-03-15T08:02:56.944Z,8.9
2024-03-15T08:04:09.038Z,8.9
2024-03-15T08:05:20.966Z,8.9
2024-03-15T08:06:33.032Z,9.1
2024-03-15T08:07:45.013Z,9.1
2024-03-15T08:08:56.949Z,9
2024-03-15T08:10:09.027Z,9
2024-03-15T08:11:21.064Z,9.3
2024-03-15T08:12:33.003Z,9
2024-03-15T08:13:44.941Z,9.3
2024-03-15T08:14:56.984Z,9.2
2024-03-15T08:16:09.054Z,9.2
2024-03-15T08:17:20.960Z,9.2
2024-03-15T08:18:33.060Z,9.2
2024-03-15T08:19:45.026Z,9.1
2024-03-15T08:20:56.974Z,9.3
2024-03-15T08:22:08.992Z,9.3
2024-03-15T08:23:20.952Z,9.3
2024-03-15T08:24:32.981Z,9.3
2024-03-15T08:25:45.016Z,9.3
2024-03-15T08:26:56.979Z,9.5
2024-03-15T08:28:08.992Z,9.7
2024-03-15T08:29:20.980Z,10.1
2024-03-15T08:30:33.021Z,10.1
2024-03-15T08:31:44.970Z,10
2024-03-15T08:32:56.996Z,10.2
2024-03-15T08:34:09.281Z,10.2
2024-03-15T08:35:20.971Z,10.1
2024-03-15T08:36:33.012Z,10.2
2024-03-15T08:37:45.094Z,10.2
2024-03-15T08:38:57.028Z,10.1
2024-03-15T08:40:09.140Z,9.9
2024-03-15T08:41:21.000Z,9.9
2024-03-15T08:42:33.014Z,9.9
2024-03-15T08:43:44.982Z,9.8
2024-03-15T08:44:56.971Z,9.8
2024-03-15T08:46:08.975Z,9.8
2024-03-15T08:47:20.979Z,9.9
2024-03-15T08:48:33.055Z,9.9
2024-03-15T08:49:44.999Z,10.1
2024-03-15T08:50:56.975Z,9.9
2024-03-15T08:52:09.500Z,9.9
2024-03-15T08:53:21.380Z,9.9
2024-03-15T08:54:33.348Z,9.9
2024-03-15T08:55:45.377Z,9.9
2024-03-15T08:56:57.357Z,9.9
2024-03-15T08:58:09.356Z,9.9
2024-03-15T08:59:21.415Z,9.9
2024-03-15T09:00:33.386Z,10.1
2024-03-15T09:01:45.363Z,10.1
2024-03-15T09:02:57.373Z,9.9
2024-03-15T09:04:09.804Z,9.9
2024-03-15T09:05:21.395Z,9.9
2024-03-15T09:06:33.369Z,10.1
2024-03-15T09:07:45.338Z,9.9
2024-03-15T09:08:57.330Z,9.9
2024-03-15T09:10:09.444Z,9.9
2024-03-15T09:11:21.394Z,9.9
2024-03-15T09:12:33.516Z,9.7
2024-03-15T09:13:48.901Z,9.7
2024-03-15T09:14:57.336Z,9.7
2024-03-15T09:16:09.552Z,9.7
2024-03-15T09:17:21.367Z,9.8
2024-03-15T09:18:33.431Z,9.8
2024-03-15T09:19:45.382Z,9.6
2024-03-15T09:20:57.321Z,9.7
2024-03-15T09:22:09.469Z,9.7
2024-03-15T09:23:21.420Z,10
2024-03-15T09:24:33.486Z,9.8
2024-03-15T09:25:45.351Z,9.7
2024-03-15T09:26:57.327Z,9.7
2024-03-15T09:28:09.350Z,9.9
2024-03-15T09:29:21.534Z,9.8
2024-03-15T09:30:33.353Z,9.8
2024-03-15T09:31:53.077Z,9.9
2024-03-15T09:32:57.376Z,9.9
2024-03-15T09:34:09.413Z,9.9
2024-03-15T09:35:21.369Z,10
2024-03-15T09:36:33.347Z,10
2024-03-15T09:37:45.350Z,9.8
2024-03-15T09:38:57.427Z,9.8
2024-03-15T09:40:09.403Z,9.8
2024-03-15T09:41:21.370Z,9.8
2024-03-15T09:42:33.722Z,9.8
2024-03-15T09:43:45.323Z,9.9
2024-03-15T09:44:57.347Z,9.7
2024-03-15T09:46:09.428Z,9.9
2024-03-15T09:47:21.394Z,9.7
2024-03-15T09:48:34.353Z,9.7
2024-03-15T09:49:45.331Z,9.8
2024-03-15T09:50:57.382Z,9.8
2024-03-15T09:52:09.966Z,9.8
2024-03-15T09:53:21.790Z,9.8
2024-03-15T09:54:35.457Z,9.9
2024-03-15T09:55:45.887Z,9.9
2024-03-15T09:56:57.831Z,9.9
2024-03-15T09:58:09.788Z,9.9
2024-03-15T09:59:22.034Z,10.1
2024-03-15T10:00:33.867Z,10.1
2024-03-15T10:01:45.883Z,10.1
2024-03-15T10:02:57.821Z,10.3
2024-03-15T10:04:09.773Z,10.3
2024-03-15T10:05:22.023Z,10.3
2024-03-15T10:06:33.786Z,10.3
2024-03-15T10:07:45.812Z,10.3
2024-03-15T10:08:57.784Z,10.2
2024-03-15T10:10:09.813Z,10.3
2024-03-15T10:11:21.788Z,10.1
2024-03-15T10:12:33.766Z,10.3
2024-03-15T10:13:46.120Z,10.3
2024-03-15T10:14:57.821Z,10.1
2024-03-15T10:16:09.824Z,10.1
2024-03-15T10:17:21.778Z,10.2
2024-03-15T10:18:33.834Z,10.2
2024-03-15T10:19:45.803Z,10.3
2024-03-15T10:20:58.026Z,10.1
2024-03-15T10:22:09.831Z,10
2024-03-15T10:23:21.848Z,10.2
2024-03-15T10:24:33.830Z,10.3
2024-03-15T10:25:45.780Z,10.3
2024-03-15T10:26:57.912Z,10.5
2024-03-15T10:28:09.878Z,10.3
2024-03-15T10:29:21.806Z,10.3
2024-03-15T10:30:33.760Z,10.3
2024-03-15T10:32:57.783Z,10.4
2024-03-15T10:34:09.995Z,10.2
2024-03-15T10:35:21.797Z,10.2
2024-03-15T10:36:33.787Z,10.3
2024-03-15T10:37:45.772Z,10.3
2024-03-15T10:38:57.766Z,10.3
2024-03-15T10:40:09.774Z,10.4
2024-03-15T10:41:21.799Z,10.4
2024-03-15T10:42:33.785Z,10.2
2024-03-15T10:43:45.870Z,10.3
2024-03-15T10:44:57.790Z,10.1
2024-03-15T10:46:09.799Z,10.2
2024-03-15T10:47:21.766Z,10.2
2024-03-15T10:48:33.939Z,10.4
2024-03-15T10:49:45.846Z,10.2
2024-03-15T10:50:57.817Z,10.1
2024-03-15T10:52:10.451Z,10.3
2024-03-15T10:53:22.253Z,10.1
2024-03-15T10:54:34.243Z,10.4
2024-03-15T10:55:46.220Z,10.4
2024-03-15T10:56:58.214Z,10.4
2024-03-15T10:58:10.459Z,10.2
2024-03-15T10:59:22.241Z,10.2
2024-03-15T11:00:34.304Z,10.3
2024-03-15T11:01:46.383Z,10.3
2024-03-15T11:02:58.218Z,10.3
2024-03-15T11:04:10.278Z,10.3
2024-03-15T11:05:22.413Z,10.3
2024-03-15T11:06:34.239Z,10.1
2024-03-15T11:07:46.227Z,10.2
2024-03-15T11:08:58.277Z,10.2
2024-03-15T11:10:10.255Z,10.2
2024-03-15T11:11:22.847Z,10.2
2024-03-15T11:12:34.241Z,10.3
2024-03-15T11:13:46.249Z,10.3
2024-03-15T11:14:58.190Z,10.3
2024-03-15T11:16:10.211Z,10.2
2024-03-15T11:17:23.608Z,9.9
2024-03-15T11:18:34.354Z,9.8
2024-03-15T11:19:46.215Z,9.9
2024-03-15T11:20:58.301Z,10
2024-03-15T11:22:10.261Z,10
2024-03-15T11:23:22.264Z,10.3
2024-03-15T11:24:34.234Z,10.3
2024-03-15T11:25:46.338Z,10
2024-03-15T11:26:58.306Z,10.1
2024-03-15T11:28:10.372Z,9.7
2024-03-15T11:29:22.222Z,9.8
2024-03-15T11:30:34.223Z,9.9
2024-03-15T11:32:58.460Z,9.9
2024-03-15T11:34:10.265Z,10.1
2024-03-15T11:35:22.205Z,10.1
2024-03-15T11:36:34.204Z,10.1
2024-03-15T11:37:46.185Z,10.1
2024-03-15T11:38:58.227Z,10.1
2024-03-15T11:40:10.216Z,10.4
2024-03-15T11:41:22.341Z,10.1
2024-03-15T11:42:34.333Z,10.1
2024-03-15T11:43:46.347Z,10.1
2024-03-15T11:44:58.313Z,10.1
2024-03-15T11:46:10.380Z,10
2024-03-15T11:47:22.240Z,10
2024-03-15T11:48:34.317Z,10
2024-03-15T11:49:46.256Z,10
2024-03-15T11:50:58.206Z,10.2
2024-03-15T11:52:10.808Z,10.2
2024-03-15T11:53:22.729Z,10.2
2024-03-15T11:54:34.693Z,10.1
2024-03-15T11:55:46.763Z,10.1
2024-03-15T11:56:58.899Z,10.1
2024-03-15T11:58:10.884Z,10.1
2024-03-15T11:59:22.757Z,9.8
2024-03-15T12:00:34.751Z,10.1
2024-03-15T12:01:46.729Z,10.1
2024-03-15T12:02:58.739Z,10.1
2024-03-15T12:04:10.724Z,10.3
2024-03-15T12:05:22.778Z,10.1
2024-03-15T12:06:34.775Z,10.3
2024-03-15T12:07:46.660Z,10.1
2024-03-15T12:08:58.729Z,10.1
2024-03-15T12:10:10.728Z,10.3
2024-03-15T12:11:22.839Z,10.2
2024-03-15T12:12:34.748Z,10.4
2024-03-15T12:13:46.703Z,10.4
2024-03-15T12:14:58.669Z,10.2
2024-03-15T12:17:22.861Z,10.2
2024-03-15T12:18:34.777Z,10.2
2024-03-15T12:19:46.750Z,10.2
2024-03-15T12:20:58.720Z,10.4
2024-03-15T12:22:10.714Z,10.1
2024-03-15T12:23:22.761Z,10.3
2024-03-15T12:24:34.717Z,10
2024-03-15T12:25:46.745Z,10.2
2024-03-15T12:26:58.736Z,10.2
2024-03-15T12:28:10.771Z,10.1
2024-03-15T12:29:22.733Z,10.1
2024-03-15T12:30:34.754Z,9.8
2024-03-15T12:31:46.705Z,9.8
2024-03-15T12:32:58.692Z,10
2024-03-15T12:34:10.827Z,9.8
2024-03-15T12:35:22.785Z,9.7
2024-03-15T12:36:34.756Z,9.7
2024-03-15T12:37:46.774Z,9.6
2024-03-15T12:38:58.670Z,9.8
2024-03-15T12:40:10.694Z,9.8
2024-03-15T12:41:22.631Z,9.8
2024-03-15T12:42:34.691Z,9.8
2024-03-15T12:43:46.696Z,9.8
2024-03-15T12:44:58.631Z,10
2024-03-15T12:46:10.894Z,9.8
2024-03-15T12:47:22.642Z,9.8
2024-03-15T12:48:34.746Z,9.9
2024-03-15T12:49:46.695Z,9.9
2024-03-15T12:50:58.662Z,9.7
2024-03-15T12:52:11.073Z,9.9
2024-03-15T12:53:23.082Z,9.9
2024-03-15T12:54:35.112Z,10
2024-03-15T12:55:47.076Z,10
2024-03-15T12:56:59.083Z,10
2024-03-15T12:58:11.689Z,10
2024-03-15T12:59:23.090Z,10
2024-03-15T13:00:35.095Z,9.8
2024-03-15T13:01:47.084Z,10.1
2024-03-15T13:02:59.312Z,10.1
2024-03-15T13:04:11.155Z,10.1
2024-03-15T13:05:23.079Z,10.1
2024-03-15T13:06:35.109Z,10
2024-03-15T13:07:47.124Z,10
2024-03-15T13:08:59.114Z,10.2
2024-03-15T13:10:11.077Z,10
2024-03-15T13:11:23.133Z,10.1
2024-03-15T13:12:35.077Z,9.9
2024-03-15T13:13:47.136Z,9.9
2024-03-15T13:14:59.069Z,9.8
2024-03-15T13:16:11.290Z,9.8
2024-03-15T13:17:23.061Z,9.8
2024-03-15T13:18:35.137Z,9.8
2024-03-15T13:19:47.081Z,9.8
2024-03-15T13:20:59.087Z,9.8
2024-03-15T13:22:11.060Z,9.8
2024-03-15T13:23:23.078Z,9.8
2024-03-15T13:24:35.096Z,9.8
2024-03-15T13:25:47.109Z,9.7
2024-03-15T13:26:59.076Z,9.7
2024-03-15T13:28:11.096Z,9.7
2024-03-15T13:29:23.061Z,9.9
2024-03-15T13:30:35.193Z,9.9
2024-03-15T13:33:00.959Z,9.8
2024-03-15T13:34:11.152Z,9.8
2024-03-15T13:35:23.093Z,10
2024-03-15T13:36:35.116Z,10.2
2024-03-15T13:37:47.086Z,10.6
2024-03-15T13:38:59.048Z,10.6
2024-03-15T13:40:11.099Z,10.7
2024-03-15T13:41:23.093Z,10.9
2024-03-15T13:42:35.121Z,11
2024-03-15T13:43:47.095Z,10.8
2024-03-15T13:44:59.103Z,10.9
2024-03-15T13:46:11.098Z,11
2024-03-15T13:47:23.058Z,10.9
2024-03-15T13:48:35.119Z,11
2024-03-15T13:49:47.064Z,10.9
2024-03-15T13:50:59.085Z,10.6
2024-03-15T13:52:11.523Z,10.7
2024-03-15T13:53:23.560Z,10.8
2024-03-15T13:54:35.552Z,10.5
2024-03-15T13:55:47.551Z,10.6
2024-03-15T13:56:59.521Z,10.7
2024-03-15T13:58:11.536Z,10.4
2024-03-15T13:59:23.538Z,10.5
2024-03-15T14:00:35.889Z,10.4
2024-03-15T14:02:59.560Z,10.5
2024-03-15T14:04:11.542Z,10.4
2024-03-15T14:05:23.524Z,10.6
2024-03-15T14:06:35.581Z,10
2024-03-15T14:07:47.535Z,10.2
2024-03-15T14:08:59.550Z,10.1
2024-03-15T14:10:11.516Z,10.2
2024-03-15T14:11:23.553Z,10.1
2024-03-15T14:12:35.575Z,10
2024-03-15T14:13:47.553Z,10.2
2024-03-15T14:14:59.539Z,9.8
2024-03-15T14:16:11.512Z,9.8
2024-03-15T14:17:23.508Z,10.1
2024-03-15T14:18:35.578Z,10.2
2024-03-15T14:19:47.519Z,10.5
2024-03-15T14:20:59.517Z,10.6
2024-03-15T14:22:23.485Z,10.9
2024-03-15T14:23:35.488Z,11.1
2024-03-15T14:24:47.480Z,11.1
2024-03-15T14:25:59.478Z,11.1
2024-03-15T14:27:11.465Z,11
2024-03-15T14:28:23.466Z,11.1
2024-03-15T14:29:35.474Z,10.8
2024-03-15T14:30:47.534Z,10.7
2024-03-15T14:31:59.518Z,10.7
2024-03-15T14:33:12.023Z,10.1
2024-03-15T14:34:23.519Z,10
2024-03-15T14:36:35.562Z,9.9
2024-03-15T14:37:47.538Z,10.2
2024-03-15T14:38:59.504Z,9.8
2024-03-15T14:40:11.556Z,10.3
2024-03-15T14:41:23.552Z,10.7
2024-03-15T14:42:35.987Z,10.7
2024-03-15T14:43:47.562Z,10.6
2024-03-15T14:44:59.515Z,11.1
2024-03-15T14:46:11.609Z,11.3
2024-03-15T14:47:23.501Z,11.5
2024-03-15T14:48:35.580Z,11.6
2024-03-15T14:49:47.538Z,11.8
2024-03-15T14:50:59.541Z,11.7
2024-03-15T14:52:11.914Z,10.9
2024-03-15T14:53:23.888Z,11.2
2024-03-15T14:54:35.926Z,10.6
2024-03-15T14:55:47.942Z,9.9
2024-03-15T14:56:59.902Z,9.7
2024-03-15T14:58:11.928Z,9.9
2024-03-15T14:59:23.911Z,10.1
2024-03-15T15:00:35.969Z,9.9
2024-03-15T15:02:59.996Z,9.9
2024-03-15T15:04:12.413Z,9.7
2024-03-15T15:05:23.956Z,9.8
2024-03-15T15:06:35.926Z,9.8
2024-03-15T15:07:47.953Z,9.5
2024-03-15T15:08:59.897Z,9.5
2024-03-15T15:10:11.980Z,9.6
2024-03-15T15:11:23.949Z,9.6
2024-03-15T15:12:35.925Z,9.4
2024-03-15T15:13:47.888Z,9.6
2024-03-15T15:14:59.879Z,9.6
2024-03-15T15:16:11.918Z,9.6
2024-03-15T15:17:24.014Z,9.6
2024-03-15T15:18:36.053Z,9.6
2024-03-15T15:19:47.910Z,9.8
2024-03-15T15:20:59.927Z,9.8
2024-03-15T15:22:11.914Z,9.8
2024-03-15T15:23:23.903Z,9.8
2024-03-15T15:24:35.937Z,9.6
2024-03-15T15:25:48.072Z,9.8
2024-03-15T15:26:59.961Z,9.8
2024-03-15T15:28:11.913Z,9.5
2024-03-15T15:29:23.872Z,9.8
2024-03-15T15:30:36.036Z,9.7
2024-03-15T15:31:47.974Z,9.7
2024-03-15T15:32:59.991Z,10.1
2024-03-15T15:34:11.925Z,10.7
2024-03-15T15:35:23.990Z,11.1
2024-03-15T15:36:35.936Z,11.6
2024-03-15T15:37:47.874Z,11.6
2024-03-15T15:38:59.912Z,11.5
2024-03-15T15:40:11.926Z,11.4
2024-03-15T15:41:23.889Z,11.4
2024-03-15T15:42:35.988Z,11.5
2024-03-15T15:43:47.923Z,11.8
2024-03-15T15:44:59.984Z,11.9
2024-03-15T15:46:11.903Z,11.7
2024-03-15T15:47:24.035Z,11.9
2024-03-15T15:48:36.091Z,11.5
2024-03-15T15:49:47.901Z,11.4
2024-03-15T15:50:59.954Z,11.6
2024-03-15T15:52:12.314Z,11.5
2024-03-15T15:53:24.339Z,11.1
2024-03-15T15:54:36.279Z,11.2
2024-03-15T15:55:48.308Z,11.3
2024-03-15T15:57:00.249Z,11.5
2024-03-15T15:58:12.546Z,11.3
2024-03-15T15:59:24.265Z,11.2
2024-03-15T16:00:36.346Z,11.4
2024-03-15T16:01:48.295Z,11.3
2024-03-15T16:03:01.588Z,11.2
2024-03-15T16:04:12.274Z,11.4
2024-03-15T16:05:24.291Z,11.3
2024-03-15T16:06:36.286Z,11.3
2024-03-15T16:07:48.302Z,10.5
2024-03-15T16:09:00.258Z,11
2024-03-15T16:10:12.321Z,11
2024-03-15T16:11:24.308Z,10.6
2024-03-15T16:12:36.265Z,10.4
2024-03-15T16:13:48.277Z,10.5
2024-03-15T16:15:01.446Z,10.5
2024-03-15T16:16:12.281Z,10.5
2024-03-15T16:17:24.256Z,10.4
2024-03-15T16:18:36.295Z,10.3
2024-03-15T16:19:48.309Z,10.2
2024-03-15T16:21:00.258Z,10.2
2024-03-15T16:22:12.458Z,10.3
2024-03-15T16:23:24.250Z,10.1
2024-03-15T16:24:36.307Z,10.1
2024-03-15T16:25:48.263Z,10.2
2024-03-15T16:27:00.293Z,10.4
2024-03-15T16:28:12.377Z,10.4
2024-03-15T16:29:24.314Z,10
2024-03-15T16:30:36.270Z,10.2
2024-03-15T16:31:48.299Z,10.5
2024-03-15T16:33:01.750Z,10.5
2024-03-15T16:34:12.374Z,10.4
2024-03-15T16:35:24.287Z,10.2
2024-03-15T16:36:36.324Z,10.2
2024-03-15T16:37:48.290Z,10.5
2024-03-15T16:39:02.247Z,10.6
2024-03-15T16:40:12.258Z,10.5
2024-03-15T16:41:24.280Z,10.3
2024-03-15T16:42:36.409Z,10.1
2024-03-15T16:43:48.285Z,10.1
2024-03-15T16:45:00.334Z,10.3